createdAt,value
2022-10-28T00:00:24.906Z,18.10
2022-10-28T00:01:27.984Z,18.00
2022-10-28T00:02:32.465Z,18.10
2022-10-28T00:03:41.166Z,18.00
2022-10-28T00:04:43.817Z,18.10
2022-10-28T00:05:47.227Z,18.10
2022-10-28T00:06:49.964Z,18.10
2022-10-28T00:07:53.003Z,18.00
2022-10-28T00:08:56.726Z,18.00
2022-10-28T00:09:59.286Z,18.10
2022-10-28T00:11:17.851Z,18.00
2022-10-28T00:12:20.705Z,18.10
2022-10-28T00:13:23.174Z,18.00
2022-10-28T00:14:28.102Z,18.10
2022-10-28T00:15:41.097Z,18.10
2022-10-28T00:16:44.925Z,18.00
2022-10-28T00:17:47.668Z,18.10
2022-10-28T00:18:54.682Z,18.00
2022-10-28T00:20:00.810Z,18.00
2022-10-28T00:21:11.168Z,18.00
2022-10-28T00:22:13.627Z,18.00
2022-10-28T00:23:24.466Z,18.00
2022-10-28T00:24:34.456Z,17.90
2022-10-28T00:25:37.198Z,17.90
2022-10-28T00:26:46.017Z,17.90
2022-10-28T00:27:48.512Z,18.00
2022-10-28T00:29:13.255Z,17.90
2022-10-28T00:30:18.169Z,17.90
2022-10-28T00:31:26.268Z,17.90
2022-10-28T00:32:33.710Z,17.90
2022-10-28T00:33:38.898Z,17.90
2022-10-28T00:34:41.591Z,18.00
2022-10-28T00:35:46.595Z,17.90
2022-10-28T00:36:57.974Z,17.90
2022-10-28T00:38:00.735Z,18.00
2022-10-28T00:39:08.166Z,18.00
2022-10-28T00:40:13.972Z,18.00
2022-10-28T00:41:27.486Z,18.00
2022-10-28T00:42:30.028Z,18.00
2022-10-28T00:43:51.139Z,18.00
2022-10-28T00:45:01.986Z,18.00
2022-10-28T00:46:07.639Z,18.00
2022-10-28T00:47:44.639Z,17.90
2022-10-28T00:49:12.087Z,18.00
2022-10-28T00:50:24.432Z,17.90
2022-10-28T00:51:32.679Z,17.90
2022-10-28T00:52:35.690Z,17.90
2022-10-28T00:53:40.194Z,17.90
2022-10-28T00:54:44.118Z,17.90
2022-10-28T00:55:49.169Z,17.90
2022-10-28T00:56:56.098Z,18.00
2022-10-28T00:58:02.259Z,18.00
2022-10-28T00:59:13.613Z,18.00
2022-10-28T01:00:17.037Z,18.00
2022-10-28T01:01:19.597Z,18.00
2022-10-28T01:02:24.954Z,18.00
2022-10-28T01:03:27.454Z,18.00
2022-10-28T01:04:30.040Z,18.00
2022-10-28T01:05:35.899Z,18.00
2022-10-28T01:06:39.279Z,18.00
2022-10-28T01:07:42.619Z,18.00
2022-10-28T01:08:45.374Z,18.00
2022-10-28T01:09:48.299Z,18.00
2022-10-28T01:11:18.574Z,18.00
2022-10-28T01:12:52.871Z,18.00
2022-10-28T01:14:02.224Z,18.00
2022-10-28T01:15:13.223Z,18.00
2022-10-28T01:16:47.514Z,18.00
2022-10-28T01:17:50.413Z,18.00
2022-10-28T01:19:18.233Z,18.00
2022-10-28T01:20:57.940Z,17.90
2022-10-28T01:22:15.101Z,17.90
2022-10-28T01:23:41.236Z,17.90
2022-10-28T01:25:10.960Z,17.90
2022-10-28T01:26:43.218Z,17.90
2022-10-28T01:28:11.842Z,17.90
2022-10-28T01:29:40.319Z,17.90
2022-10-28T01:31:11.292Z,17.90
2022-10-28T01:32:27.120Z,17.80
2022-10-28T01:33:46.386Z,17.90
2022-10-28T01:35:13.988Z,17.90
2022-10-28T01:36:36.661Z,17.80
2022-10-28T01:38:01.688Z,17.90
2022-10-28T01:39:28.533Z,17.80
2022-10-28T01:40:42.829Z,17.80
2022-10-28T01:41:58.648Z,17.80
2022-10-28T01:43:24.323Z,17.80
2022-10-28T01:44:45.900Z,17.80
2022-10-28T01:45:52.280Z,17.80
2022-10-28T01:47:04.879Z,17.80
2022-10-28T01:48:12.465Z,17.80
2022-10-28T01:49:23.131Z,17.80
2022-10-28T01:50:36.058Z,17.80
2022-10-28T01:51:43.871Z,17.80
2022-10-28T01:52:48.330Z,17.80
2022-10-28T01:53:54.970Z,17.80
2022-10-28T01:55:09.778Z,17.90
2022-10-28T01:56:17.414Z,17.80
2022-10-28T01:57:22.131Z,17.80
2022-10-28T01:58:30.233Z,17.90
2022-10-28T01:59:34.902Z,17.90
2022-10-28T02:00:38.485Z,17.80
2022-10-28T02:01:41.465Z,17.80
2022-10-28T02:02:45.108Z,17.80
2022-10-28T02:03:47.976Z,17.80
2022-10-28T02:04:50.425Z,17.90
2022-10-28T02:05:56.106Z,17.90
2022-10-28T02:07:00.520Z,17.90
2022-10-28T02:08:17.556Z,17.90
2022-10-28T02:09:26.581Z,17.90
2022-10-28T02:10:35.260Z,17.80
2022-10-28T02:12:19.618Z,17.80
2022-10-28T02:13:26.837Z,17.80
2022-10-28T02:15:00.992Z,17.80
2022-10-28T02:16:28.199Z,17.80
2022-10-28T02:17:33.585Z,17.80
2022-10-28T02:18:59.938Z,17.80
2022-10-28T02:20:36.300Z,17.80
2022-10-28T02:22:19.947Z,17.80
2022-10-28T02:23:44.570Z,17.70
2022-10-28T02:25:08.300Z,17.70
2022-10-28T02:26:27.810Z,17.70
2022-10-28T02:27:36.457Z,17.70
2022-10-28T02:29:05.439Z,17.70
2022-10-28T02:30:30.588Z,17.70
2022-10-28T02:31:37.936Z,17.70
2022-10-28T02:32:56.232Z,17.70
2022-10-28T02:34:04.391Z,17.70
2022-10-28T02:35:17.299Z,17.70
2022-10-28T02:36:23.613Z,17.70
2022-10-28T02:37:33.222Z,17.70
2022-10-28T02:38:45.492Z,17.70
2022-10-28T02:39:53.278Z,17.70
2022-10-28T02:41:02.275Z,17.70
2022-10-28T02:42:10.565Z,17.70
2022-10-28T02:43:14.618Z,17.70
2022-10-28T02:44:23.810Z,17.70
2022-10-28T02:45:31.899Z,17.70
2022-10-28T02:46:37.015Z,17.70
2022-10-28T02:47:45.014Z,17.70
2022-10-28T02:48:49.559Z,17.70
2022-10-28T02:49:56.942Z,17.70
2022-10-28T02:51:11.069Z,17.70
2022-10-28T02:52:15.541Z,17.70
2022-10-28T02:53:22.856Z,17.70
2022-10-28T02:54:31.919Z,17.70
2022-10-28T02:55:40.033Z,17.70
2022-10-28T02:56:54.427Z,17.70
2022-10-28T02:57:57.677Z,17.70
2022-10-28T02:59:00.113Z,17.70
2022-10-28T03:00:07.576Z,17.70
2022-10-28T03:01:10.106Z,17.70
2022-10-28T03:02:12.649Z,17.70
2022-10-28T03:03:15.233Z,17.70
2022-10-28T03:04:17.618Z,17.70
2022-10-28T03:05:20.788Z,17.70
2022-10-28T03:06:23.226Z,17.70
2022-10-28T03:07:25.679Z,17.70
2022-10-28T03:08:28.074Z,17.70
2022-10-28T03:09:30.484Z,17.80
2022-10-28T03:10:32.898Z,17.80
2022-10-28T03:11:35.073Z,17.80
2022-10-28T03:14:15.682Z,17.80
2022-10-28T03:15:23.127Z,17.70
2022-10-28T03:16:35.819Z,17.80
2022-10-28T03:17:45.393Z,17.80
2022-10-28T03:18:48.016Z,17.70
2022-10-28T03:19:50.598Z,17.70
2022-10-28T03:20:55.513Z,17.80
2022-10-28T03:22:01.112Z,17.80
2022-10-28T03:23:03.903Z,17.70
2022-10-28T03:24:07.175Z,17.80
2022-10-28T03:25:18.884Z,17.80
2022-10-28T03:26:21.559Z,17.80
2022-10-28T03:27:24.243Z,17.80
2022-10-28T03:28:33.433Z,17.80
2022-10-28T03:29:36.079Z,17.80
2022-10-28T03:30:38.546Z,17.80
2022-10-28T03:31:41.120Z,17.80
2022-10-28T03:32:46.422Z,17.80
2022-10-28T03:33:55.464Z,17.80
2022-10-28T03:34:58.035Z,17.90
2022-10-28T03:36:03.875Z,17.90
2022-10-28T03:37:09.490Z,17.80
2022-10-28T03:38:12.291Z,17.90
2022-10-28T03:39:15.134Z,17.90
2022-10-28T03:40:20.005Z,17.90
2022-10-28T03:41:22.685Z,17.90
2022-10-28T03:42:27.915Z,17.90
2022-10-28T03:43:30.411Z,17.90
2022-10-28T03:44:33.022Z,17.90
2022-10-28T03:45:35.441Z,17.90
2022-10-28T03:46:39.286Z,17.90
2022-10-28T03:47:42.491Z,17.90
2022-10-28T03:48:45.352Z,17.90
2022-10-28T03:49:50.080Z,17.90
2022-10-28T03:50:57.286Z,17.90
2022-10-28T03:52:02.623Z,17.90
2022-10-28T03:53:05.407Z,17.90
2022-10-28T03:54:16.671Z,17.90
2022-10-28T03:55:23.840Z,17.90
2022-10-28T03:56:26.357Z,17.90
2022-10-28T03:57:32.351Z,17.90
2022-10-28T03:58:36.227Z,17.90
2022-10-28T03:59:42.797Z,17.90
2022-10-28T04:00:45.439Z,17.90
2022-10-28T04:01:48.196Z,17.90
2022-10-28T04:02:52.504Z,17.90
2022-10-28T04:04:01.607Z,17.90
2022-10-28T04:05:04.366Z,17.90
2022-10-28T04:06:13.564Z,18.00
2022-10-28T04:07:16.491Z,17.90
2022-10-28T04:08:20.550Z,17.90
2022-10-28T04:09:23.202Z,18.00
2022-10-28T04:10:26.321Z,18.00
2022-10-28T04:11:29.115Z,18.00
2022-10-28T04:12:33.321Z,18.00
2022-10-28T04:13:37.344Z,18.00
2022-10-28T04:14:42.908Z,18.00
2022-10-28T04:15:45.953Z,18.00
2022-10-28T04:16:51.111Z,18.00
2022-10-28T04:17:53.796Z,18.00
2022-10-28T04:18:57.750Z,18.00
2022-10-28T04:20:00.449Z,18.00
2022-10-28T04:21:04.018Z,18.00
2022-10-28T04:22:06.594Z,18.00
2022-10-28T04:23:14.493Z,18.00
2022-10-28T04:24:20.417Z,18.00
2022-10-28T04:25:24.232Z,18.00
2022-10-28T04:26:28.254Z,18.10
2022-10-28T04:27:31.104Z,18.00
2022-10-28T04:28:34.523Z,18.00
2022-10-28T04:29:37.163Z,18.00
2022-10-28T04:30:39.945Z,18.00
2022-10-28T04:31:48.639Z,18.10
2022-10-28T04:32:54.064Z,18.00
2022-10-28T04:34:00.979Z,18.10
2022-10-28T04:35:03.623Z,18.10
2022-10-28T04:36:06.506Z,18.10
2022-10-28T04:37:08.992Z,18.10
2022-10-28T04:38:12.625Z,18.10
2022-10-28T04:39:15.101Z,18.10
2022-10-28T04:40:17.798Z,18.10
2022-10-28T04:41:32.660Z,18.10
2022-10-28T04:42:40.617Z,18.20
2022-10-28T04:43:43.371Z,18.10
2022-10-28T04:44:51.971Z,18.10
2022-10-28T04:45:56.159Z,18.10
2022-10-28T04:46:58.702Z,18.10
2022-10-28T04:48:01.782Z,18.10
2022-10-28T04:49:04.379Z,18.10
2022-10-28T04:50:07.187Z,18.10
2022-10-28T04:51:09.663Z,18.10
2022-10-28T04:52:15.967Z,18.10
2022-10-28T04:53:20.192Z,18.10
2022-10-28T04:54:22.876Z,18.10
2022-10-28T04:55:25.522Z,18.10
2022-10-28T04:56:28.891Z,18.10
2022-10-28T04:57:32.447Z,18.10
2022-10-28T04:58:35.206Z,18.10
2022-10-28T04:59:37.726Z,18.10
2022-10-28T05:00:40.455Z,18.10
2022-10-28T05:01:43.063Z,18.10
2022-10-28T05:02:46.250Z,18.10
2022-10-28T05:03:48.812Z,18.10
2022-10-28T05:05:02.268Z,18.10
2022-10-28T05:06:08.048Z,18.10
2022-10-28T05:07:10.796Z,18.10
2022-10-28T05:08:13.777Z,18.10
2022-10-28T05:09:19.319Z,18.10
2022-10-28T05:10:21.773Z,18.00
2022-10-28T05:11:26.801Z,18.10
2022-10-28T05:12:29.469Z,18.10
2022-10-28T05:13:32.137Z,18.10
2022-10-28T05:14:35.197Z,18.10
2022-10-28T05:15:37.770Z,18.10
2022-10-28T05:16:40.239Z,18.10
2022-10-28T05:17:47.448Z,18.10
2022-10-28T05:18:50.034Z,18.10
2022-10-28T05:19:52.569Z,18.10
2022-10-28T05:20:55.356Z,18.10
2022-10-28T05:21:58.641Z,18.00
2022-10-28T05:23:01.235Z,18.00
2022-10-28T05:24:05.434Z,18.10
2022-10-28T05:25:08.375Z,18.00
2022-10-28T05:26:11.228Z,18.10
2022-10-28T05:27:13.888Z,18.00
2022-10-28T05:28:19.132Z,18.10
2022-10-28T05:29:21.854Z,18.10
2022-10-28T05:30:24.480Z,18.10
2022-10-28T05:31:29.610Z,18.10
2022-10-28T05:32:32.063Z,18.80
2022-10-28T05:33:34.923Z,18.10
2022-10-28T05:34:37.546Z,18.10
2022-10-28T05:35:40.740Z,18.10
2022-10-28T05:36:46.239Z,18.10
2022-10-28T05:37:48.864Z,18.10
2022-10-28T05:38:51.604Z,18.10
2022-10-28T05:39:57.302Z,18.10
2022-10-28T05:40:59.954Z,18.10
2022-10-28T05:42:02.810Z,18.10
2022-10-28T05:43:05.449Z,18.10
2022-10-28T05:44:11.148Z,18.10
2022-10-28T05:45:13.958Z,18.10
2022-10-28T05:46:16.465Z,18.10
2022-10-28T05:47:19.216Z,18.10
2022-10-28T05:48:23.622Z,18.10
2022-10-28T05:49:27.269Z,18.10
2022-10-28T05:50:29.785Z,18.10
2022-10-28T05:51:32.523Z,18.10
2022-10-28T05:52:35.706Z,18.10
2022-10-28T05:53:42.343Z,18.10
2022-10-28T05:54:45.034Z,18.10
2022-10-28T05:55:48.013Z,18.20
2022-10-28T05:56:50.879Z,18.10
2022-10-28T05:57:57.639Z,18.10
2022-10-28T05:59:01.977Z,18.20
2022-10-28T06:00:05.367Z,18.10
2022-10-28T06:01:15.677Z,18.10
2022-10-28T06:02:18.750Z,18.10
2022-10-28T06:03:30.096Z,18.20
2022-10-28T06:04:36.871Z,18.10
2022-10-28T06:05:42.174Z,18.20
2022-10-28T06:06:46.243Z,18.10
2022-10-28T06:07:51.902Z,18.20
2022-10-28T06:08:57.556Z,18.10
2022-10-28T06:10:00.099Z,18.10
2022-10-28T06:11:01.623Z,18.20
2022-10-28T06:12:07.112Z,18.20
2022-10-28T06:13:15.933Z,18.20
2022-10-28T06:14:18.379Z,18.20
2022-10-28T06:15:21.229Z,18.20
2022-10-28T06:16:26.198Z,18.10
2022-10-28T06:17:30.361Z,18.10
2022-10-28T06:18:33.261Z,18.10
2022-10-28T06:19:38.208Z,18.20
2022-10-28T06:20:43.605Z,18.20
2022-10-28T06:21:49.167Z,18.20
2022-10-28T06:22:53.977Z,18.10
2022-10-28T06:24:00.067Z,18.20
2022-10-28T06:25:02.722Z,18.10
2022-10-28T06:26:05.369Z,18.10
2022-10-28T06:27:07.909Z,18.10
2022-10-28T06:28:12.674Z,18.10
2022-10-28T06:29:23.074Z,18.20
2022-10-28T06:30:25.920Z,18.10
2022-10-28T06:31:28.290Z,18.10
2022-10-28T06:32:33.228Z,18.00
2022-10-28T06:33:36.988Z,18.00
2022-10-28T06:34:39.679Z,18.10
2022-10-28T06:35:47.934Z,18.10
2022-10-28T06:36:53.618Z,18.10
2022-10-28T06:37:57.232Z,18.10
2022-10-28T06:40:28.722Z,18.10
2022-10-28T06:41:40.812Z,18.10
2022-10-28T06:42:45.476Z,18.10
2022-10-28T06:43:53.817Z,18.00
2022-10-28T06:44:56.671Z,18.00
2022-10-28T06:46:04.471Z,18.00
2022-10-28T06:47:08.729Z,18.00
2022-10-28T06:48:11.796Z,18.00
2022-10-28T06:49:14.494Z,18.00
2022-10-28T06:50:19.729Z,18.00
2022-10-28T06:51:24.092Z,18.00
2022-10-28T06:52:26.920Z,18.00
2022-10-28T06:53:29.690Z,18.00
2022-10-28T06:54:32.396Z,18.00
2022-10-28T06:55:38.023Z,18.00
2022-10-28T06:56:41.009Z,18.00
2022-10-28T06:57:43.520Z,18.00
2022-10-28T06:58:53.767Z,18.00
2022-10-28T06:59:56.462Z,18.00
2022-10-28T07:01:04.632Z,18.00
2022-10-28T07:02:09.136Z,18.00
2022-10-28T07:03:14.241Z,18.00
2022-10-28T07:04:28.713Z,18.00
2022-10-28T07:06:58.570Z,18.00
2022-10-28T07:08:03.599Z,18.00
2022-10-28T07:09:08.842Z,18.00
2022-10-28T07:10:11.657Z,18.00
2022-10-28T07:11:14.260Z,18.10
2022-10-28T07:13:19.313Z,18.10
2022-10-28T07:14:22.242Z,18.10
2022-10-28T07:15:24.828Z,18.10
2022-10-28T07:16:27.526Z,18.10
2022-10-28T07:17:29.889Z,18.10
2022-10-28T07:18:32.424Z,18.10
2022-10-28T07:19:35.038Z,18.20
2022-10-28T07:20:40.154Z,18.10
2022-10-28T07:21:43.113Z,18.10
2022-10-28T07:22:46.910Z,18.20
2022-10-28T07:23:52.256Z,18.20
2022-10-28T07:25:00.706Z,18.20
2022-10-28T07:26:07.217Z,18.20
2022-10-28T07:27:12.383Z,18.20
2022-10-28T07:28:14.832Z,18.20
2022-10-28T07:29:17.532Z,18.20
2022-10-28T07:30:20.197Z,18.20
2022-10-28T07:31:23.023Z,18.20
2022-10-28T07:32:26.764Z,18.30
2022-10-28T07:33:30.241Z,18.30
2022-10-28T07:34:32.769Z,18.30
2022-10-28T07:35:35.314Z,18.30
2022-10-28T07:36:38.037Z,18.30
2022-10-28T07:37:40.557Z,18.30
2022-10-28T07:38:43.160Z,18.30
2022-10-28T07:39:48.256Z,18.30
2022-10-28T07:40:51.004Z,18.30
2022-10-28T07:41:56.287Z,18.40
2022-10-28T07:42:59.521Z,18.40
2022-10-28T07:44:02.105Z,18.40
2022-10-28T07:45:05.183Z,18.40
2022-10-28T07:46:08.116Z,18.40
2022-10-28T07:47:10.762Z,18.40
2022-10-28T07:48:13.442Z,18.40
2022-10-28T07:49:17.544Z,18.40
2022-10-28T07:50:20.191Z,18.40
2022-10-28T07:51:22.568Z,18.40
2022-10-28T07:52:25.000Z,18.50
2022-10-28T07:53:28.888Z,18.40
2022-10-28T07:54:32.781Z,18.50
2022-10-28T07:55:35.151Z,18.50
2022-10-28T07:56:37.723Z,18.50
2022-10-28T07:57:40.532Z,18.50
2022-10-28T07:58:44.867Z,18.50
2022-10-28T07:59:47.364Z,18.50
2022-10-28T08:00:50.580Z,18.50
2022-10-28T08:01:53.306Z,18.50
2022-10-28T08:02:55.772Z,18.60
2022-10-28T08:03:58.450Z,18.60
2022-10-28T08:05:02.315Z,18.50
2022-10-28T08:06:11.732Z,18.60
2022-10-28T08:07:15.256Z,18.60
2022-10-28T08:08:18.898Z,18.60
2022-10-28T08:09:21.283Z,18.60
2022-10-28T08:10:23.836Z,18.60
2022-10-28T08:11:26.268Z,18.60
2022-10-28T08:12:28.788Z,18.70
2022-10-28T08:13:33.048Z,18.70
2022-10-28T08:14:37.514Z,18.60
2022-10-28T08:15:39.898Z,18.70
2022-10-28T08:16:42.957Z,18.70
2022-10-28T08:17:51.529Z,18.70
2022-10-28T08:18:54.182Z,18.70
2022-10-28T08:19:56.771Z,18.80
2022-10-28T08:22:08.708Z,18.80
2022-10-28T08:23:11.171Z,18.80
2022-10-28T08:24:13.701Z,18.80
2022-10-28T08:25:16.335Z,18.90
2022-10-28T08:26:19.798Z,18.90
2022-10-28T08:27:22.445Z,18.90
2022-10-28T08:28:25.036Z,18.90
2022-10-28T08:29:29.886Z,18.90
2022-10-28T08:30:40.355Z,19.00
2022-10-28T08:31:52.903Z,19.00
2022-10-28T08:32:56.311Z,19.00
2022-10-28T08:33:59.039Z,19.00
2022-10-28T08:35:01.776Z,19.00
2022-10-28T08:36:05.091Z,19.10
2022-10-28T08:37:07.746Z,19.10
2022-10-28T08:38:10.358Z,19.10
2022-10-28T08:39:12.798Z,19.10
2022-10-28T08:40:15.342Z,19.20
2022-10-28T08:41:38.288Z,19.20
2022-10-28T08:42:52.547Z,19.30
2022-10-28T08:44:28.574Z,19.20
2022-10-28T08:45:48.212Z,19.30
2022-10-28T08:47:27.194Z,19.30
2022-10-28T08:48:35.592Z,19.30
2022-10-28T08:49:43.331Z,19.30
2022-10-28T08:50:55.128Z,19.30
2022-10-28T08:52:14.617Z,19.40
2022-10-28T08:53:21.672Z,19.40
2022-10-28T08:54:53.731Z,19.40
2022-10-28T08:56:14.477Z,19.40
2022-10-28T08:57:30.768Z,19.40
2022-10-28T08:58:36.347Z,19.50
2022-10-28T08:59:41.498Z,19.50
2022-10-28T09:00:49.186Z,19.50
2022-10-28T09:02:23.729Z,19.50
2022-10-28T09:03:43.757Z,19.50
2022-10-28T09:04:47.140Z,19.50
2022-10-28T09:05:55.794Z,19.50
2022-10-28T09:06:58.395Z,19.50
2022-10-28T09:08:02.700Z,19.60
2022-10-28T09:09:05.313Z,19.60
2022-10-28T09:10:08.274Z,19.60
2022-10-28T09:11:10.690Z,19.60
2022-10-28T09:12:28.450Z,19.60
2022-10-28T09:13:50.353Z,19.70
2022-10-28T09:15:14.812Z,19.70
2022-10-28T09:16:31.424Z,19.70
2022-10-28T09:17:53.721Z,19.60
2022-10-28T09:18:58.558Z,19.70
2022-10-28T09:20:18.773Z,19.60
2022-10-28T09:21:27.228Z,19.70
2022-10-28T09:22:32.512Z,19.60
2022-10-28T09:23:45.580Z,19.60
2022-10-28T09:24:47.981Z,19.60
2022-10-28T09:26:14.964Z,19.60
2022-10-28T09:27:30.807Z,19.70
2022-10-28T09:29:02.896Z,19.70
2022-10-28T09:30:26.419Z,19.70
2022-10-28T09:31:53.103Z,19.70
2022-10-28T09:32:58.562Z,19.70
2022-10-28T09:34:00.902Z,19.80
2022-10-28T09:35:15.700Z,19.80
2022-10-28T09:36:25.115Z,19.80
2022-10-28T09:37:42.095Z,19.90
2022-10-28T09:38:45.575Z,19.90
2022-10-28T09:39:56.413Z,19.80
2022-10-28T09:40:59.035Z,19.90
2022-10-28T09:42:03.912Z,19.90
2022-10-28T09:43:26.327Z,19.90
2022-10-28T09:44:40.661Z,19.90
2022-10-28T09:45:46.865Z,19.90
2022-10-28T09:46:53.625Z,19.90
2022-10-28T09:48:01.550Z,20.00
2022-10-28T09:49:09.788Z,20.00
2022-10-28T09:50:20.845Z,20.00
2022-10-28T09:51:46.167Z,20.00
2022-10-28T09:53:07.111Z,20.10
2022-10-28T09:54:12.141Z,20.00
2022-10-28T09:55:21.151Z,20.10
2022-10-28T09:56:24.034Z,20.10
2022-10-28T09:57:31.511Z,20.10
2022-10-28T09:58:35.645Z,20.10
2022-10-28T09:59:38.905Z,20.10
2022-10-28T10:00:41.459Z,20.10
2022-10-28T10:01:46.764Z,20.10
2022-10-28T10:02:58.012Z,20.10
2022-10-28T10:04:01.152Z,20.20
2022-10-28T10:05:16.884Z,20.10
2022-10-28T10:06:23.844Z,20.10
2022-10-28T10:07:53.192Z,20.10
2022-10-28T10:08:57.103Z,20.20
2022-10-28T10:11:42.867Z,20.10
2022-10-28T10:12:51.396Z,20.20
2022-10-28T10:13:57.149Z,20.10
2022-10-28T10:14:59.945Z,20.10
2022-10-28T10:16:07.416Z,20.10
2022-10-28T10:17:16.914Z,20.20
2022-10-28T10:18:23.843Z,20.20
2022-10-28T10:19:26.443Z,20.20
2022-10-28T10:20:45.026Z,20.10
2022-10-28T10:21:55.358Z,20.20
2022-10-28T10:22:57.798Z,20.20
2022-10-28T10:24:00.197Z,20.10
2022-10-28T10:25:04.876Z,20.10
2022-10-28T10:26:13.556Z,20.20
2022-10-28T10:27:20.625Z,20.20
2022-10-28T10:28:25.280Z,20.20
2022-10-28T10:29:29.134Z,20.20
2022-10-28T10:30:49.622Z,20.30
2022-10-28T10:32:10.460Z,20.30
2022-10-28T10:33:24.520Z,20.30
2022-10-28T10:34:30.088Z,20.20
2022-10-28T10:35:35.402Z,20.20
2022-10-28T10:36:37.901Z,20.30
2022-10-28T10:37:47.121Z,20.30
2022-10-28T10:38:57.957Z,20.30
2022-10-28T10:40:23.946Z,20.40
2022-10-28T10:41:54.731Z,20.40
2022-10-28T10:43:17.180Z,20.40
2022-10-28T10:44:22.488Z,20.40
2022-10-28T10:45:27.212Z,20.40
2022-10-28T10:46:29.671Z,20.40
2022-10-28T10:47:32.245Z,20.50
2022-10-28T10:48:38.552Z,20.50
2022-10-28T10:49:41.035Z,20.60
2022-10-28T10:50:48.597Z,20.50
2022-10-28T10:51:57.466Z,20.60
2022-10-28T10:53:01.675Z,20.60
2022-10-28T10:54:04.279Z,20.70
2022-10-28T10:55:19.113Z,20.70
2022-10-28T10:56:27.434Z,20.70
2022-10-28T10:57:30.713Z,20.70
2022-10-28T10:58:40.343Z,20.70
2022-10-28T10:59:47.245Z,20.80
2022-10-28T11:00:54.097Z,20.80
2022-10-28T11:01:58.519Z,20.80
2022-10-28T11:03:01.913Z,20.90
2022-10-28T11:04:15.668Z,20.90
2022-10-28T11:05:27.101Z,21.00
2022-10-28T11:06:41.162Z,21.00
2022-10-28T11:07:48.269Z,21.00
2022-10-28T11:09:00.596Z,21.00
2022-10-28T11:10:04.016Z,21.10
2022-10-28T11:11:13.345Z,21.10
2022-10-28T11:12:30.435Z,21.10
2022-10-28T11:13:35.458Z,21.20
2022-10-28T11:14:38.067Z,21.20
2022-10-28T11:15:40.495Z,21.20
2022-10-28T11:16:57.778Z,21.30
2022-10-28T11:18:10.692Z,21.30
2022-10-28T11:19:22.139Z,21.40
2022-10-28T11:20:29.940Z,21.40
2022-10-28T11:21:47.908Z,21.40
2022-10-28T11:22:55.467Z,21.50
2022-10-28T11:24:33.412Z,21.50
2022-10-28T11:25:50.101Z,21.50
2022-10-28T11:27:11.653Z,21.50
2022-10-28T11:28:33.373Z,21.50
2022-10-28T11:29:35.920Z,21.50
2022-10-28T11:31:11.771Z,21.50
2022-10-28T11:33:01.389Z,21.50
2022-10-28T11:34:21.932Z,21.50
2022-10-28T11:35:59.687Z,21.40
2022-10-28T11:37:21.032Z,21.40
2022-10-28T11:38:45.829Z,21.40
2022-10-28T11:40:00.353Z,21.40
2022-10-28T11:41:21.241Z,21.40
2022-10-28T11:42:47.953Z,21.40
2022-10-28T11:43:58.580Z,21.30
2022-10-28T11:45:14.827Z,21.30
2022-10-28T11:46:57.567Z,21.30
2022-10-28T11:48:25.405Z,21.30
2022-10-28T11:49:59.270Z,21.20
2022-10-28T11:51:10.100Z,21.20
2022-10-28T11:52:57.176Z,21.20
2022-10-28T11:54:35.165Z,21.20
2022-10-28T11:55:48.266Z,21.20
2022-10-28T11:57:01.627Z,21.10
2022-10-28T11:58:23.775Z,21.10
2022-10-28T12:00:03.023Z,21.10
2022-10-28T12:01:25.581Z,21.10
2022-10-28T12:02:49.374Z,21.10
2022-10-28T12:04:19.439Z,21.10
2022-10-28T12:05:35.877Z,21.00
2022-10-28T12:06:56.805Z,21.00
2022-10-28T12:08:14.141Z,21.00
2022-10-28T12:09:55.214Z,21.00
2022-10-28T12:11:19.454Z,21.10
2022-10-28T12:12:31.184Z,21.00
2022-10-28T12:15:23.184Z,21.00
2022-10-28T12:16:50.297Z,21.00
2022-10-28T12:18:09.341Z,21.00
2022-10-28T12:19:25.537Z,21.00
2022-10-28T12:20:42.756Z,21.00
2022-10-28T12:21:57.593Z,21.00
2022-10-28T12:23:03.075Z,21.00
2022-10-28T12:24:20.110Z,21.00
2022-10-28T12:25:33.942Z,21.10
2022-10-28T12:26:42.065Z,21.10
2022-10-28T12:27:47.727Z,21.10
2022-10-28T12:29:01.201Z,21.10
2022-10-28T12:30:13.664Z,21.10
2022-10-28T12:31:21.393Z,21.10
2022-10-28T12:32:29.554Z,21.10
2022-10-28T12:33:34.753Z,21.20
2022-10-28T12:34:48.879Z,21.10
2022-10-28T12:36:04.428Z,21.20
2022-10-28T12:37:14.554Z,21.20
2022-10-28T12:38:36.706Z,21.20
2022-10-28T12:39:45.492Z,21.20
2022-10-28T12:41:10.956Z,21.20
2022-10-28T12:42:37.011Z,21.20
2022-10-28T12:43:48.938Z,21.30
2022-10-28T12:44:54.113Z,21.20
2022-10-28T12:45:56.828Z,21.30
2022-10-28T12:47:40.593Z,21.30
2022-10-28T12:48:51.424Z,21.40
2022-10-28T12:50:04.318Z,21.40
2022-10-28T12:51:25.401Z,21.40
2022-10-28T12:52:30.657Z,21.50
2022-10-28T12:53:51.935Z,21.50
2022-10-28T12:54:58.089Z,21.60
2022-10-28T12:56:02.449Z,21.60
2022-10-28T12:57:16.029Z,21.70
2022-10-28T12:58:30.564Z,21.80
2022-10-28T12:59:37.115Z,21.80
2022-10-28T13:01:00.307Z,21.90
2022-10-28T13:02:04.279Z,21.90
2022-10-28T13:03:11.543Z,21.90
2022-10-28T13:04:14.572Z,22.00
2022-10-28T13:05:31.617Z,22.00
2022-10-28T13:07:21.955Z,22.10
2022-10-28T13:08:48.838Z,22.20
2022-10-28T13:10:17.670Z,22.20
2022-10-28T13:11:35.108Z,22.20
2022-10-28T13:13:03.390Z,22.20
2022-10-28T13:14:41.559Z,22.20
2022-10-28T13:15:49.547Z,22.20
2022-10-28T13:17:16.204Z,22.20
2022-10-28T13:18:37.506Z,22.20
2022-10-28T13:20:04.280Z,22.20
2022-10-28T13:21:31.191Z,22.20
2022-10-28T13:23:03.752Z,22.20
2022-10-28T13:24:20.221Z,22.20
2022-10-28T13:25:34.713Z,22.20
2022-10-28T13:26:40.700Z,22.20
2022-10-28T13:27:43.385Z,22.20
2022-10-28T13:28:49.421Z,22.20
2022-10-28T13:29:55.142Z,22.30
2022-10-28T13:30:59.436Z,22.30
2022-10-28T13:32:02.386Z,22.30
2022-10-28T13:33:07.838Z,22.30
2022-10-28T13:34:13.056Z,22.30
2022-10-28T13:35:24.056Z,22.40
2022-10-28T13:36:36.554Z,22.40
2022-10-28T13:37:40.900Z,22.40
2022-10-28T13:38:50.189Z,22.50
2022-10-28T13:39:52.733Z,22.50
2022-10-28T13:40:58.167Z,22.50
2022-10-28T13:42:20.913Z,22.50
2022-10-28T13:43:50.742Z,22.60
2022-10-28T13:44:55.583Z,22.60
2022-10-28T13:45:58.976Z,22.60
2022-10-28T13:47:24.738Z,22.60
2022-10-28T13:48:30.210Z,22.60
2022-10-28T13:49:36.487Z,22.60
2022-10-28T13:50:38.924Z,22.60
2022-10-28T13:51:50.175Z,22.70
2022-10-28T13:53:24.807Z,22.70
2022-10-28T13:54:31.977Z,22.70
2022-10-28T13:55:44.013Z,22.70
2022-10-28T13:56:49.802Z,22.70
2022-10-28T13:58:04.098Z,22.80
2022-10-28T13:59:12.442Z,22.90
2022-10-28T14:00:18.000Z,22.90
2022-10-28T14:01:39.022Z,22.90
2022-10-28T14:02:49.998Z,23.00
2022-10-28T14:03:53.048Z,23.00
2022-10-28T14:05:18.025Z,23.00
2022-10-28T14:06:33.306Z,23.10
2022-10-28T14:07:39.696Z,23.10
2022-10-28T14:08:42.737Z,23.20
2022-10-28T14:09:45.576Z,23.20
2022-10-28T14:11:22.784Z,23.30
2022-10-28T14:12:33.636Z,23.30
2022-10-28T14:13:47.349Z,23.40
2022-10-28T14:15:03.604Z,23.40
2022-10-28T14:16:25.000Z,23.50
2022-10-28T14:17:34.388Z,23.50
2022-10-28T14:18:43.886Z,23.60
2022-10-28T14:19:53.127Z,23.70
2022-10-28T14:21:00.635Z,23.70
2022-10-28T14:22:07.892Z,23.80
2022-10-28T14:23:22.342Z,23.80
2022-10-28T14:24:37.403Z,23.90
2022-10-28T14:25:45.193Z,24.00
2022-10-28T14:27:05.591Z,24.00
2022-10-28T14:28:26.861Z,24.20
2022-10-28T14:29:30.010Z,24.20
2022-10-28T14:30:32.503Z,24.20
2022-10-28T14:31:42.510Z,24.20
2022-10-28T14:32:57.397Z,24.20
2022-10-28T14:34:00.018Z,24.20
2022-10-28T14:35:13.996Z,24.20
2022-10-28T14:36:19.607Z,24.20
2022-10-28T14:37:42.427Z,24.20
2022-10-28T14:38:56.361Z,24.20
2022-10-28T14:40:16.336Z,24.30
2022-10-28T14:41:42.976Z,24.30
2022-10-28T14:42:55.406Z,24.30
2022-10-28T14:44:16.319Z,24.40
2022-10-28T14:45:21.476Z,24.40
2022-10-28T14:46:48.475Z,24.50
2022-10-28T14:48:15.190Z,24.50
2022-10-28T14:49:30.432Z,24.60
2022-10-28T14:50:32.797Z,24.60
2022-10-28T14:51:41.869Z,24.70
2022-10-28T14:52:46.573Z,24.80
2022-10-28T14:53:53.043Z,24.80
2022-10-28T14:54:57.871Z,24.90
2022-10-28T14:56:07.937Z,25.00
2022-10-28T14:57:11.120Z,25.00
2022-10-28T14:58:23.458Z,25.10
2022-10-28T14:59:46.715Z,25.20
2022-10-28T15:01:19.311Z,25.30
2022-10-28T15:02:28.482Z,25.40
2022-10-28T15:03:32.200Z,25.40
2022-10-28T15:04:34.709Z,25.40